createdAt,value
2018-12-04T00:00:17.119Z,9.09
2018-12-04T00:01:17.126Z,9.1
2018-12-04T00:02:17.214Z,9.11
2018-12-04T00:03:17.069Z,9.11
2018-12-04T00:04:17.094Z,9.12
2018-12-04T00:05:17.065Z,9.12
2018-12-04T00:06:17.100Z,9.08
2018-12-04T00:07:17.132Z,9.07
2018-12-04T00:08:17.150Z,9.05
2018-12-04T00:09:17.078Z,9.07
2018-12-04T00:10:17.050Z,9.05
2018-12-04T00:11:17.037Z,9.05
2018-12-04T00:12:17.217Z,9.04
2018-12-04T00:13:17.085Z,9.04
2018-12-04T00:14:17.127Z,9.06
2018-12-04T00:15:17.122Z,9.03
2018-12-04T00:16:17.088Z,9.05
2018-12-04T00:17:17.169Z,9.02
2018-12-04T00:18:17.362Z,9.02
2018-12-04T00:19:17.192Z,9.01
2018-12-04T00:20:17.135Z,9
2018-12-04T00:21:17.245Z,9
2018-12-04T00:22:17.048Z,9
2018-12-04T00:23:17.141Z,9.02
2018-12-04T00:24:17.097Z,9.01
2018-12-04T00:25:17.357Z,8.99
2018-12-04T00:26:17.104Z,9.01
2018-12-04T00:27:17.033Z,9.01
2018-12-04T00:28:17.129Z,8.99
2018-12-04T00:29:17.059Z,9.02
2018-12-04T00:30:17.123Z,9.02
2018-12-04T00:31:17.184Z,9.01
2018-12-04T00:32:17.157Z,9.01
2018-12-04T00:33:17.190Z,9
2018-12-04T00:34:17.115Z,9
2018-12-04T00:35:17.174Z,9.02
2018-12-04T00:36:17.117Z,9.01
2018-12-04T00:37:17.053Z,9.01
2018-12-04T00:38:17.540Z,9.02
2018-12-04T00:39:17.103Z,9.03
2018-12-04T00:40:17.107Z,9.02
2018-12-04T00:41:17.218Z,9.04
2018-12-04T00:42:17.281Z,9.04
2018-12-04T00:43:17.131Z,9.04
2018-12-04T00:44:17.119Z,9.02
2018-12-04T00:45:17.063Z,9.04
2018-12-04T00:46:17.077Z,9.02
2018-12-04T00:47:16.951Z,9.03
2018-12-04T00:48:17.129Z,9.03
2018-12-04T00:49:17.066Z,9.05
2018-12-04T00:50:17.114Z,9.04
2018-12-04T00:51:17.017Z,9.05
2018-12-04T00:52:17.185Z,9.05
2018-12-04T00:53:17.284Z,9.07
2018-12-04T00:54:17.341Z,9.08
2018-12-04T00:55:16.987Z,9.06
2018-12-04T00:56:17.134Z,9.08
2018-12-04T00:57:17.197Z,9.1
2018-12-04T00:58:17.099Z,9.1
2018-12-04T00:59:17.263Z,9.1
2018-12-04T01:00:17.624Z,9.13
2018-12-04T01:01:16.989Z,9.12
2018-12-04T01:02:17.283Z,9.13
2018-12-04T01:03:17.148Z,9.16
2018-12-04T01:04:17.030Z,9.15
2018-12-04T01:05:17.009Z,9.16
2018-12-04T01:06:17.810Z,9.17
2018-12-04T01:07:17.097Z,9.19
2018-12-04T01:08:17.094Z,9.19
2018-12-04T01:09:17.003Z,9.21
2018-12-04T01:10:17.423Z,9.22
2018-12-04T01:11:16.963Z,9.21
2018-12-04T01:12:17.229Z,9.2
2018-12-04T01:13:17.156Z,9.2
2018-12-04T01:14:17.256Z,9.2
2018-12-04T01:15:17.238Z,9.19
2018-12-04T01:16:17.183Z,9.21
2018-12-04T01:17:16.918Z,9.21
2018-12-04T01:18:16.956Z,9.2
2018-12-04T01:19:17.056Z,9.21
2018-12-04T01:20:16.951Z,9.2
2018-12-04T01:21:17.049Z,9.21
2018-12-04T01:22:17.193Z,9.2
2018-12-04T01:23:17.084Z,9.2
2018-12-04T01:24:17.140Z,9.2
2018-12-04T01:25:17.103Z,9.21
2018-12-04T01:26:17.125Z,9.19
2018-12-04T01:27:17.217Z,9.2
2018-12-04T01:28:17.059Z,9.19
2018-12-04T01:29:17.022Z,9.2
2018-12-04T01:30:17.415Z,9.18
2018-12-04T01:31:17.534Z,9.19
2018-12-04T01:32:17.169Z,9.18
2018-12-04T01:33:17.086Z,9.19
2018-12-04T01:34:16.936Z,9.18
2018-12-04T01:35:17.118Z,9.17
2018-12-04T01:36:17.089Z,9.17
2018-12-04T01:37:17.233Z,9.17
2018-12-04T01:38:16.964Z,9.18
2018-12-04T01:39:16.975Z,9.16
2018-12-04T01:40:16.932Z,9.17
2018-12-04T01:41:16.988Z,9.16
2018-12-04T01:42:16.944Z,9.16
2018-12-04T01:43:17.002Z,9.16
2018-12-04T01:44:16.955Z,9.16
2018-12-04T01:45:16.912Z,9.13
2018-12-04T01:46:16.950Z,9.14
2018-12-04T01:47:16.892Z,9.14
2018-12-04T01:48:17.260Z,9.12
2018-12-04T01:49:16.901Z,9.12
2018-12-04T01:50:16.935Z,9.12
2018-12-04T01:51:16.934Z,9.12
2018-12-04T01:52:16.953Z,9.12
2018-12-04T01:53:17.142Z,9.11
2018-12-04T01:54:16.900Z,9.14
2018-12-04T01:55:16.899Z,9.13
2018-12-04T01:56:16.964Z,9.14
2018-12-04T01:57:17.066Z,9.12
2018-12-04T01:58:16.925Z,9.13
2018-12-04T01:59:16.933Z,9.13
2018-12-04T02:00:17.180Z,9.14
2018-12-04T02:01:17.200Z,9.12
2018-12-04T02:02:17.003Z,9.12
2018-12-04T02:03:17.181Z,9.11
2018-12-04T02:04:16.963Z,9.14
2018-12-04T02:05:17.109Z,9.12
2018-12-04T02:06:16.925Z,9.13
2018-12-04T02:07:17.372Z,9.1
2018-12-04T02:08:17.201Z,9.1
2018-12-04T02:09:16.928Z,9.12
2018-12-04T02:10:17.136Z,9.11
2018-12-04T02:11:17.767Z,9.12
2018-12-04T02:12:17.076Z,9.12
2018-12-04T02:13:17.001Z,9.11
2018-12-04T02:14:16.982Z,9.09
2018-12-04T02:15:16.904Z,9.1
2018-12-04T02:16:16.846Z,9.11
2018-12-04T02:17:16.888Z,9.1
2018-12-04T02:18:17.080Z,9.09
2018-12-04T02:19:16.972Z,9.11
2018-12-04T02:20:16.839Z,9.11
2018-12-04T02:21:16.984Z,9.1
2018-12-04T02:22:16.908Z,9.12
2018-12-04T02:23:16.908Z,9.1
2018-12-04T02:24:16.952Z,9.09
2018-12-04T02:25:16.932Z,9.12
2018-12-04T02:26:16.878Z,9.1
2018-12-04T02:27:17.048Z,9.12
2018-12-04T02:28:17.152Z,9.11
2018-12-04T02:29:16.994Z,9.12
2018-12-04T02:30:16.964Z,9.12
2018-12-04T02:31:16.866Z,9.12
2018-12-04T02:32:17.133Z,9.13
2018-12-04T02:33:16.847Z,9.14
2018-12-04T02:34:17.055Z,9.13
2018-12-04T02:35:17.371Z,9.16
2018-12-04T02:36:16.966Z,9.14
2018-12-04T02:37:17.085Z,9.13
2018-12-04T02:38:17.048Z,9.13
2018-12-04T02:39:16.913Z,9.11
2018-12-04T02:40:17.199Z,9.11
2018-12-04T02:41:17.179Z,9.12
2018-12-04T02:42:17.085Z,9.07
2018-12-04T02:43:16.881Z,9.09
2018-12-04T02:44:16.877Z,9.08
2018-12-04T02:45:17.103Z,9.09
2018-12-04T02:46:17.112Z,9.08
2018-12-04T02:47:17.007Z,9.1
2018-12-04T02:48:16.836Z,9.08
2018-12-04T02:49:16.923Z,9.08
2018-12-04T02:50:17.195Z,9.1
2018-12-04T02:51:16.993Z,9.07
2018-12-04T02:52:16.913Z,9.08
2018-12-04T02:53:16.923Z,9.07
2018-12-04T02:54:16.912Z,9.08
2018-12-04T02:55:16.825Z,9.09
2018-12-04T02:56:16.886Z,9.08
2018-12-04T02:57:17.033Z,9.1
2018-12-04T02:58:16.837Z,9.09
2018-12-04T02:59:17.111Z,9.08
2018-12-04T03:00:17.279Z,9.08
2018-12-04T03:01:17.023Z,9.09
2018-12-04T03:02:16.948Z,9.08
2018-12-04T03:03:16.808Z,9.08
2018-12-04T03:04:16.981Z,9.09
2018-12-04T03:05:16.866Z,9.08
2018-12-04T03:06:17.059Z,9.08
2018-12-04T03:07:16.890Z,9.08
2018-12-04T03:08:16.885Z,9.08
2018-12-04T03:09:16.861Z,9.08
2018-12-04T03:10:16.832Z,9.09
2018-12-04T03:11:16.878Z,9.09
2018-12-04T03:12:16.847Z,9.09
2018-12-04T03:13:16.818Z,9.09
2018-12-04T03:14:17.041Z,9.1
2018-12-04T03:15:16.855Z,9.09
2018-12-04T03:16:17.132Z,9.08
2018-12-04T03:17:16.848Z,9.11
2018-12-04T03:18:16.823Z,9.1
2018-12-04T03:19:16.828Z,9.13
2018-12-04T03:20:16.866Z,9.11
2018-12-04T03:21:16.841Z,9.11
2018-12-04T03:22:16.806Z,9.11
2018-12-04T03:23:16.764Z,9.11
2018-12-04T03:24:17.055Z,9.11
2018-12-04T03:25:16.845Z,9.11
2018-12-04T03:26:16.892Z,9.12
2018-12-04T03:27:16.805Z,9.1
2018-12-04T03:28:16.847Z,9.09
2018-12-04T03:29:16.820Z,9.09
2018-12-04T03:30:16.834Z,9.1
2018-12-04T03:31:16.815Z,9.07
2018-12-04T03:32:16.852Z,9.09
2018-12-04T03:33:16.827Z,9.09
2018-12-04T03:34:16.805Z,9.1
2018-12-04T03:35:16.845Z,9.1
2018-12-04T03:36:16.907Z,9.11
2018-12-04T03:37:17.107Z,9.11
2018-12-04T03:38:16.770Z,9.11
2018-12-04T03:39:16.857Z,9.11
2018-12-04T03:40:16.780Z,9.09
2018-12-04T03:41:16.859Z,9.1
2018-12-04T03:42:16.769Z,9.12
2018-12-04T03:43:17.092Z,9.1
2018-12-04T03:44:16.786Z,9.11
2018-12-04T03:45:16.898Z,9.11
2018-12-04T03:46:16.821Z,9.1
2018-12-04T03:47:16.912Z,9.1
2018-12-04T03:48:16.839Z,9.11
2018-12-04T03:49:16.996Z,9.09
2018-12-04T03:50:16.885Z,9.08
2018-12-04T03:51:16.830Z,9.1
2018-12-04T03:52:16.868Z,9.12
2018-12-04T03:53:16.956Z,9.15
2018-12-04T03:54:16.860Z,9.14
2018-12-04T03:55:17.098Z,9.16
2018-12-04T03:56:16.981Z,9.16
2018-12-04T03:57:16.948Z,9.14
2018-12-04T03:58:16.735Z,9.11
2018-12-04T03:59:16.981Z,9.1
2018-12-04T04:00:16.900Z,9.07
2018-12-04T04:01:17.102Z,9.08
2018-12-04T04:02:16.868Z,9.06
2018-12-04T04:03:16.840Z,9.08
2018-12-04T04:04:16.778Z,9.08
2018-12-04T04:05:17.047Z,9.05
2018-12-04T04:06:16.809Z,9.07
2018-12-04T04:07:16.814Z,9.05
2018-12-04T04:08:17.081Z,9.05
2018-12-04T04:09:16.852Z,9.04
2018-12-04T04:10:17.593Z,9.04
2018-12-04T04:11:16.843Z,9.01
2018-12-04T04:12:16.786Z,9
2018-12-04T04:13:16.758Z,9.01
2018-12-04T04:14:16.890Z,9
2018-12-04T04:15:16.780Z,8.99
2018-12-04T04:16:17.020Z,8.97
2018-12-04T04:17:16.958Z,8.97
2018-12-04T04:18:16.711Z,8.97
2018-12-04T04:19:16.709Z,8.95
2018-12-04T04:20:16.815Z,8.93
2018-12-04T04:21:16.791Z,8.93
2018-12-04T04:22:16.802Z,8.95
2018-12-04T04:23:16.831Z,8.95
2018-12-04T04:24:16.757Z,8.89
2018-12-04T04:25:16.786Z,8.89
2018-12-04T04:26:17.236Z,8.88
2018-12-04T04:27:16.853Z,8.91
2018-12-04T04:28:16.793Z,8.86
2018-12-04T04:29:16.768Z,8.86
2018-12-04T04:30:16.914Z,8.85
2018-12-04T04:31:16.783Z,8.85
2018-12-04T04:32:16.831Z,8.84
2018-12-04T04:33:16.873Z,8.84
2018-12-04T04:34:16.762Z,8.82
2018-12-04T04:35:16.726Z,8.85
2018-12-04T04:36:16.760Z,8.85
2018-12-04T04:37:16.823Z,8.85
2018-12-04T04:38:16.870Z,8.84
2018-12-04T04:39:16.821Z,8.83
2018-12-04T04:40:16.670Z,8.83
2018-12-04T04:41:16.885Z,8.83
2018-12-04T04:42:16.730Z,8.8
2018-12-04T04:43:16.743Z,8.8
2018-12-04T04:44:17.156Z,8.79
2018-12-04T04:45:16.906Z,8.8
2018-12-04T04:46:16.897Z,8.8
2018-12-04T04:47:16.735Z,8.82
2018-12-04T04:48:16.678Z,8.8
2018-12-04T04:49:16.710Z,8.79
2018-12-04T04:50:16.717Z,8.79
2018-12-04T04:51:16.760Z,8.81
2018-12-04T04:52:16.712Z,8.81
2018-12-04T04:53:16.677Z,8.82
2018-12-04T04:54:17.028Z,8.82
2018-12-04T04:55:16.707Z,8.78
2018-12-04T04:56:16.699Z,8.79
2018-12-04T04:57:16.704Z,8.79
2018-12-04T04:58:16.728Z,8.81
2018-12-04T04:59:16.684Z,8.81
2018-12-04T05:00:16.795Z,8.81
2018-12-04T05:01:16.898Z,8.84
2018-12-04T05:02:16.694Z,8.84
2018-12-04T05:03:16.709Z,8.84
2018-12-04T05:04:16.810Z,8.83
2018-12-04T05:05:16.681Z,8.82
2018-12-04T05:06:16.903Z,8.84
2018-12-04T05:07:16.645Z,8.82
2018-12-04T05:08:16.655Z,8.8
2018-12-04T05:09:16.663Z,8.82
2018-12-04T05:10:16.683Z,8.84
2018-12-04T05:11:16.792Z,8.81
2018-12-04T05:12:17.277Z,8.8
2018-12-04T05:13:16.832Z,8.81
2018-12-04T05:14:16.783Z,8.82
2018-12-04T05:15:16.737Z,8.81
2018-12-04T05:16:16.805Z,8.81
2018-12-04T05:17:16.834Z,8.8
2018-12-04T05:18:16.725Z,8.83
2018-12-04T05:19:16.790Z,8.81
2018-12-04T05:20:16.800Z,8.82
2018-12-04T05:21:16.679Z,8.82
2018-12-04T05:22:16.763Z,8.8
2018-12-04T05:23:16.891Z,8.8
2018-12-04T05:24:17.192Z,8.8
2018-12-04T05:25:16.624Z,8.8
2018-12-04T05:26:16.761Z,8.8
2018-12-04T05:27:16.701Z,8.8
2018-12-04T05:28:16.791Z,8.8
2018-12-04T05:29:16.656Z,8.77
2018-12-04T05:30:16.684Z,8.78
2018-12-04T05:31:16.733Z,8.76
2018-12-04T05:32:16.638Z,8.73
2018-12-04T05:33:16.707Z,8.73
2018-12-04T05:34:16.684Z,8.73
2018-12-04T05:35:17.341Z,8.74
2018-12-04T05:36:16.806Z,8.73
2018-12-04T05:37:17.060Z,8.73
2018-12-04T05:38:16.814Z,8.72
2018-12-04T05:39:16.600Z,8.72
2018-12-04T05:40:16.655Z,8.69
2018-12-04T05:41:16.884Z,8.72
2018-12-04T05:42:16.879Z,8.69
2018-12-04T05:43:16.827Z,8.68
2018-12-04T05:44:19.687Z,8.71
2018-12-04T05:45:16.808Z,8.68
2018-12-04T05:46:16.806Z,8.68
2018-12-04T05:47:16.794Z,8.69
2018-12-04T05:48:16.658Z,8.68
2018-12-04T05:49:16.772Z,8.71
2018-12-04T05:50:16.591Z,8.7
2018-12-04T05:51:16.631Z,8.7
2018-12-04T05:52:16.959Z,8.68
2018-12-04T05:53:16.974Z,8.64
2018-12-04T05:54:16.791Z,8.65
2018-12-04T05:55:16.659Z,8.66
2018-12-04T05:56:16.621Z,8.66
2018-12-04T05:57:16.863Z,8.65
2018-12-04T05:58:16.767Z,8.63
2018-12-04T05:59:16.760Z,8.64
2018-12-04T06:00:16.612Z,8.59
2018-12-04T06:01:16.673Z,8.54
2018-12-04T06:02:16.759Z,8.55
2018-12-04T06:03:16.943Z,8.53
2018-12-04T06:04:16.653Z,8.54
2018-12-04T06:05:17.022Z,8.48
2018-12-04T06:06:16.895Z,8.48
2018-12-04T06:07:16.674Z,8.51
2018-12-04T06:08:16.858Z,8.53
2018-12-04T06:09:16.587Z,8.53
2018-12-04T06:10:17.398Z,8.49
2018-12-04T06:11:16.635Z,8.53
2018-12-04T06:12:16.596Z,8.47
2018-12-04T06:13:16.570Z,8.48
2018-12-04T06:14:16.674Z,8.53
2018-12-04T06:15:16.706Z,8.48
2018-12-04T06:16:16.592Z,8.45
2018-12-04T06:17:16.767Z,8.46
2018-12-04T06:18:16.693Z,8.45
2018-12-04T06:19:16.589Z,8.34
2018-12-04T06:20:16.751Z,8.35
2018-12-04T06:21:16.655Z,8.41
2018-12-04T06:22:16.792Z,8.44
2018-12-04T06:23:16.624Z,8.45
2018-12-04T06:24:16.659Z,8.43
2018-12-04T06:25:16.617Z,8.42
2018-12-04T06:26:16.639Z,8.4
2018-12-04T06:27:16.658Z,8.39
2018-12-04T06:28:16.590Z,8.42
2018-12-04T06:29:16.552Z,8.39
2018-12-04T06:30:16.996Z,8.25
2018-12-04T06:31:16.658Z,8.33
2018-12-04T06:32:16.601Z,8.26
2018-12-04T06:33:16.605Z,8.24
2018-12-04T06:34:16.616Z,8.24
2018-12-04T06:35:16.537Z,8.23
2018-12-04T06:36:16.540Z,8.28
2018-12-04T06:37:16.616Z,8.26
2018-12-04T06:38:16.628Z,8.27
2018-12-04T06:39:16.563Z,8.23
2018-12-04T06:40:16.566Z,8.27
2018-12-04T06:41:16.547Z,8.28
2018-12-04T06:42:16.533Z,8.21
2018-12-04T06:43:16.580Z,8.15
2018-12-04T06:44:16.599Z,8.15
2018-12-04T06:45:16.538Z,8.12
2018-12-04T06:46:16.574Z,8.09
2018-12-04T06:47:16.595Z,8.1
2018-12-04T06:48:16.631Z,8.14
2018-12-04T06:49:16.605Z,8.09
2018-12-04T06:50:18.531Z,8.08
2018-12-04T06:51:16.533Z,8.14
2018-12-04T06:52:16.604Z,8.07
2018-12-04T06:53:16.750Z,8
2018-12-04T06:54:16.686Z,8.02
2018-12-04T06:55:16.539Z,7.99
2018-12-04T06:56:16.584Z,7.98
2018-12-04T06:57:16.703Z,7.98
2018-12-04T06:58:16.641Z,7.94
2018-12-04T06:59:16.837Z,7.93
2018-12-04T07:00:16.548Z,7.95
2018-12-04T07:01:16.587Z,7.9
2018-12-04T07:02:16.565Z,7.93
2018-12-04T07:03:16.701Z,7.94
2018-12-04T07:04:16.579Z,7.97
2018-12-04T07:05:16.692Z,7.9
2018-12-04T07:06:16.552Z,7.89
2018-12-04T07:07:16.873Z,7.9
2018-12-04T07:08:16.595Z,7.95
2018-12-04T07:09:16.594Z,7.89
2018-12-04T07:10:16.535Z,7.91
2018-12-04T07:11:16.614Z,7.91
2018-12-04T07:12:16.680Z,7.92
2018-12-04T07:13:16.673Z,7.92
2018-12-04T07:14:16.500Z,7.95
2018-12-04T07:15:16.822Z,7.92
2018-12-04T07:16:16.907Z,7.95
2018-12-04T07:17:16.573Z,7.92
2018-12-04T07:18:16.777Z,7.93
2018-12-04T07:19:16.683Z,7.98
2018-12-04T07:20:16.603Z,7.93
2018-12-04T07:21:16.525Z,7.94
2018-12-04T07:22:16.582Z,7.95
2018-12-04T07:23:16.606Z,7.94
2018-12-04T07:24:16.630Z,7.96
2018-12-04T07:25:17.393Z,7.91
2018-12-04T07:26:16.568Z,7.86
2018-12-04T07:27:17.002Z,7.85
2018-12-04T07:28:16.509Z,7.82
2018-12-04T07:29:16.674Z,7.84
2018-12-04T07:30:16.532Z,7.86
2018-12-04T07:31:16.650Z,7.87
2018-12-04T07:32:16.515Z,7.89
2018-12-04T07:33:16.479Z,7.77
2018-12-04T07:34:16.732Z,7.78
2018-12-04T07:35:16.569Z,7.75
2018-12-04T07:36:16.883Z,7.77
2018-12-04T07:37:16.500Z,7.75
2018-12-04T07:38:16.573Z,7.75
2018-12-04T07:39:16.464Z,7.74
2018-12-04T07:40:16.526Z,7.74
2018-12-04T07:41:16.632Z,7.72
2018-12-04T07:42:16.586Z,7.73
2018-12-04T07:43:16.637Z,7.74
2018-12-04T07:44:16.695Z,7.76
2018-12-04T07:45:16.575Z,7.74
2018-12-04T07:46:16.608Z,7.8
2018-12-04T07:47:16.734Z,7.76
2018-12-04T07:48:16.658Z,7.79
2018-12-04T07:49:16.571Z,7.75
2018-12-04T07:50:16.541Z,7.78
2018-12-04T07:51:16.771Z,7.82
2018-12-04T07:52:16.648Z,7.73
2018-12-04T07:53:16.664Z,7.76
2018-12-04T07:54:16.635Z,7.75
2018-12-04T07:55:16.539Z,7.73
2018-12-04T07:56:16.593Z,7.76
2018-12-04T07:57:16.449Z,7.77
2018-12-04T07:58:16.625Z,7.74
2018-12-04T07:59:16.734Z,7.78
2018-12-04T08:00:16.656Z,7.78
2018-12-04T08:01:16.458Z,7.77
2018-12-04T08:02:16.464Z,7.76
2018-12-04T08:03:16.674Z,7.78
2018-12-04T08:04:16.631Z,7.72
2018-12-04T08:05:16.574Z,7.75
2018-12-04T08:06:16.509Z,7.77
2018-12-04T08:07:16.463Z,7.76
2018-12-04T08:08:16.408Z,7.74
2018-12-04T08:09:16.457Z,7.74
2018-12-04T08:10:16.438Z,7.72
2018-12-04T08:11:16.428Z,7.72
2018-12-04T08:12:16.420Z,7.73
2018-12-04T08:13:16.544Z,7.73
2018-12-04T08:14:16.481Z,7.75
2018-12-04T08:15:16.386Z,7.75
2018-12-04T08:16:16.464Z,7.78
2018-12-04T08:17:16.830Z,7.74
2018-12-04T08:18:16.474Z,7.72
2018-12-04T08:19:16.414Z,7.72
2018-12-04T08:20:16.486Z,7.75
2018-12-04T08:21:16.446Z,7.74
2018-12-04T08:22:16.503Z,7.7
2018-12-04T08:23:16.441Z,7.69
2018-12-04T08:24:16.675Z,7.71
2018-12-04T08:25:16.460Z,7.73
2018-12-04T08:26:16.464Z,7.7
2018-12-04T08:27:16.625Z,7.7
2018-12-04T08:28:16.485Z,7.67
2018-12-04T08:29:16.417Z,7.72
2018-12-04T08:30:16.455Z,7.7
2018-12-04T08:31:16.430Z,7.73
2018-12-04T08:32:16.504Z,7.76
2018-12-04T08:33:16.523Z,7.74
2018-12-04T08:34:16.617Z,7.72
2018-12-04T08:35:16.484Z,7.69
2018-12-04T08:36:16.506Z,7.74
2018-12-04T08:37:16.652Z,7.76
2018-12-04T08:38:16.393Z,7.66
2018-12-04T08:39:16.469Z,7.68
2018-12-04T08:40:16.589Z,7.65
2018-12-04T08:41:16.384Z,7.7
2018-12-04T08:42:16.550Z,7.72
2018-12-04T08:43:16.554Z,7.6
2018-12-04T08:44:16.691Z,7.62
2018-12-04T08:45:16.450Z,7.62
2018-12-04T08:46:16.519Z,7.64
2018-12-04T08:47:17.270Z,7.67
2018-12-04T08:48:17.155Z,7.62
2018-12-04T08:49:16.682Z,7.68
2018-12-04T08:50:16.484Z,7.67
2018-12-04T08:51:16.467Z,7.68
2018-12-04T08:52:16.446Z,7.68
2018-12-04T08:53:16.559Z,7.74
2018-12-04T08:54:16.411Z,7.76
2018-12-04T08:55:16.433Z,7.78
2018-12-04T08:56:16.859Z,7.82
2018-12-04T08:57:16.639Z,7.83
2018-12-04T08:58:16.619Z,7.8
2018-12-04T08:59:16.548Z,7.78
2018-12-04T09:00:16.374Z,7.78
2018-12-04T09:01:16.462Z,7.77
2018-12-04T09:02:16.859Z,7.83
2018-12-04T09:03:16.493Z,7.83
2018-12-04T09:04:16.482Z,7.86
2018-12-04T09:05:16.798Z,7.89
2018-12-04T09:06:16.392Z,7.95
2018-12-04T09:07:17.217Z,7.93
2018-12-04T09:08:16.501Z,7.96
2018-12-04T09:09:16.367Z,7.91
2018-12-04T09:10:16.556Z,7.89
2018-12-04T09:11:16.557Z,7.86
2018-12-04T09:12:16.471Z,7.76
2018-12-04T09:13:16.407Z,7.79
2018-12-04T09:14:16.488Z,7.91
2018-12-04T09:15:16.544Z,7.93
2018-12-04T09:16:16.525Z,7.92
2018-12-04T09:17:16.407Z,7.94
2018-12-04T09:18:16.636Z,8
2018-12-04T09:19:16.501Z,7.9
2018-12-04T09:20:17.586Z,7.91
2018-12-04T09:21:16.707Z,7.91
2018-12-04T09:22:16.628Z,7.85
2018-12-04T09:23:16.641Z,7.91
2018-12-04T09:24:17.124Z,7.88
2018-12-04T09:25:16.501Z,7.89
2018-12-04T09:26:17.040Z,7.9
2018-12-04T09:27:16.692Z,7.8
2018-12-04T09:28:16.783Z,7.88
2018-12-04T09:29:16.746Z,7.87
2018-12-04T09:30:16.770Z,7.84
2018-12-04T09:31:16.554Z,7.89
2018-12-04T09:32:16.506Z,7.91
2018-12-04T09:33:16.782Z,7.9
2018-12-04T09:34:16.827Z,7.87
2018-12-04T09:35:16.343Z,7.89
2018-12-04T09:36:17.222Z,7.78
2018-12-04T09:37:16.816Z,7.78
2018-12-04T09:38:16.400Z,7.71
2018-12-04T09:39:16.351Z,7.78
2018-12-04T09:40:16.341Z,7.79
2018-12-04T09:41:16.738Z,7.76
2018-12-04T09:42:16.307Z,7.72
2018-12-04T09:43:16.302Z,7.74
2018-12-04T09:44:16.353Z,7.74
2018-12-04T09:45:16.321Z,7.76
2018-12-04T09:46:16.931Z,7.8
2018-12-04T09:47:17.044Z,7.8
2018-12-04T09:48:16.389Z,7.78
2018-12-04T09:49:16.306Z,7.76
2018-12-04T09:50:16.978Z,7.75
2018-12-04T09:51:16.368Z,7.79
2018-12-04T09:52:16.276Z,7.81
2018-12-04T09:53:16.314Z,7.83
2018-12-04T09:54:16.396Z,7.88
2018-12-04T09:55:16.293Z,7.87
2018-12-04T09:56:16.320Z,7.85
2018-12-04T09:57:16.294Z,7.88
2018-12-04T09:58:16.277Z,7.84
2018-12-04T09:59:16.646Z,7.91
2018-12-04T10:00:16.314Z,7.9
2018-12-04T10:01:16.345Z,7.8
2018-12-04T10:02:16.321Z,7.88
2018-12-04T10:03:16.700Z,7.86
2018-12-04T10:04:16.252Z,7.88
2018-12-04T10:05:16.382Z,7.9
2018-12-04T10:06:16.427Z,7.84
2018-12-04T10:07:16.488Z,7.85
2018-12-04T10:08:16.335Z,7.88
2018-12-04T10:09:16.342Z,7.81
2018-12-04T10:10:16.352Z,7.8
2018-12-04T10:11:16.563Z,7.83
2018-12-04T10:12:16.385Z,7.83
2018-12-04T10:13:16.444Z,7.87
2018-12-04T10:14:16.569Z,7.86
2018-12-04T10:15:17.120Z,7.89
2018-12-04T10:16:16.506Z,7.9
2018-12-04T10:17:16.402Z,7.87
2018-12-04T10:18:16.307Z,7.89
2018-12-04T10:19:16.427Z,7.92
2018-12-04T10:20:16.742Z,7.84
2018-12-04T10:21:16.277Z,7.97
2018-12-04T10:22:16.755Z,7.88
2018-12-04T10:23:16.358Z,7.83
2018-12-04T10:24:16.574Z,7.83
2018-12-04T10:25:16.881Z,7.84
2018-12-04T10:26:16.519Z,7.81
2018-12-04T10:27:16.502Z,7.74
2018-12-04T10:28:16.407Z,7.77
2018-12-04T10:29:16.621Z,7.78
2018-12-04T10:30:16.564Z,7.88
2018-12-04T10:31:16.734Z,7.87
2018-12-04T10:32:16.598Z,7.91
2018-12-04T10:33:18.701Z,7.9
2018-12-04T10:34:16.316Z,7.8
2018-12-04T10:35:16.626Z,7.76
2018-12-04T10:36:16.615Z,7.84
2018-12-04T10:37:16.451Z,7.78
2018-12-04T10:38:16.503Z,7.82
2018-12-04T10:39:16.237Z,7.88
2018-12-04T10:40:16.604Z,7.95
2018-12-04T10:41:16.510Z,7.9
2018-12-04T10:42:16.398Z,7.84
2018-12-04T10:43:16.255Z,7.88
2018-12-04T10:44:16.462Z,7.86
2018-12-04T10:45:16.364Z,7.76
2018-12-04T10:46:16.427Z,7.77
2018-12-04T10:47:16.455Z,7.73
2018-12-04T10:48:16.291Z,7.71
2018-12-04T10:49:16.642Z,7.61
2018-12-04T10:50:16.297Z,7.67
2018-12-04T10:51:16.314Z,7.64
2018-12-04T10:52:16.444Z,7.67
2018-12-04T10:53:16.310Z,7.65
2018-12-04T10:54:17.138Z,7.55
2018-12-04T10:55:16.345Z,7.45
2018-12-04T10:56:16.268Z,7.46
2018-12-04T10:57:16.508Z,7.45
2018-12-04T10:58:16.576Z,7.52
2018-12-04T10:59:16.491Z,7.55
2018-12-04T11:00:16.552Z,7.55
2018-12-04T11:01:16.550Z,7.53
2018-12-04T11:02:16.489Z,7.46
2018-12-04T11:03:16.257Z,7.51
2018-12-04T11:04:16.468Z,7.51
2018-12-04T11:05:16.209Z,7.54
2018-12-04T11:06:17.200Z,7.49
2018-12-04T11:07:16.193Z,7.52
2018-12-04T11:08:16.198Z,7.48
2018-12-04T11:09:16.466Z,7.54
2018-12-04T11:10:16.404Z,7.46
2018-12-04T11:11:16.397Z,7.44
2018-12-04T11:12:17.139Z,7.37
2018-12-04T11:13:17.259Z,7.42
2018-12-04T11:14:16.521Z,7.38
2018-12-04T11:15:16.258Z,7.41
2018-12-04T11:16:17.159Z,7.35
2018-12-04T11:17:16.170Z,7.41
2018-12-04T11:18:17.173Z,7.41
2018-12-04T11:19:17.370Z,7.37
2018-12-04T11:20:19.150Z,7.38
2018-12-04T11:21:16.633Z,7.26
2018-12-04T11:22:18.988Z,7.27
2018-12-04T11:23:16.263Z,7.25
2018-12-04T11:24:16.219Z,7.27
2018-12-04T11:25:16.275Z,7.23
2018-12-04T11:26:16.251Z,7.3
2018-12-04T11:27:16.231Z,7.28
2018-12-04T11:28:16.293Z,7.28
2018-12-04T11:29:16.364Z,7.29
2018-12-04T11:30:16.208Z,7.33
2018-12-04T11:31:16.187Z,7.32
2018-12-04T11:32:16.196Z,7.3
2018-12-04T11:33:16.204Z,7.33
2018-12-04T11:34:16.162Z,7.19
2018-12-04T11:35:16.200Z,7.23
2018-12-04T11:36:16.364Z,7.26
2018-12-04T11:37:16.249Z,7.28
2018-12-04T11:38:16.189Z,7.23
2018-12-04T11:39:16.297Z,7.27
2018-12-04T11:40:16.252Z,7.27
2018-12-04T11:41:16.211Z,7.28
2018-12-04T11:42:16.397Z,7.32
2018-12-04T11:43:16.172Z,7.3
2018-12-04T11:44:16.442Z,7.27
2018-12-04T11:45:16.339Z,7.28
2018-12-04T11:46:16.196Z,7.31
2018-12-04T11:47:16.532Z,7.35
2018-12-04T11:48:16.404Z,7.39
2018-12-04T11:49:16.683Z,7.26
2018-12-04T11:50:16.666Z,7.28
2018-12-04T11:51:16.493Z,7.21
2018-12-04T11:52:16.332Z,7.17
2018-12-04T11:53:16.256Z,7.2
2018-12-04T11:54:17.043Z,7.22
2018-12-04T11:55:16.506Z,7.23
2018-12-04T11:56:16.530Z,7.19
2018-12-04T11:57:16.236Z,7.16
2018-12-04T11:58:16.445Z,7.15
2018-12-04T11:59:16.411Z,7.14
2018-12-04T12:00:16.290Z,7.19
2018-12-04T12:01:16.520Z,7.18
2018-12-04T12:02:16.187Z,7.17
2018-12-04T12:03:16.301Z,7.21
2018-12-04T12:04:16.221Z,7.22
2018-12-04T12:05:16.218Z,7.26
2018-12-04T12:06:16.456Z,7.27
2018-12-04T12:07:20.911Z,7.27
2018-12-04T12:08:16.146Z,7.37
2018-12-04T12:09:16.303Z,7.25
2018-12-04T12:10:16.392Z,7.27
2018-12-04T12:11:16.383Z,7.3
2018-12-04T12:12:16.330Z,7.36
2018-12-04T12:13:16.987Z,7.42
2018-12-04T12:14:16.365Z,7.42
2018-12-04T12:15:19.902Z,7.46
2018-12-04T12:16:16.159Z,7.37
2018-12-04T12:17:16.129Z,7.32
2018-12-04T12:18:16.340Z,7.35
2018-12-04T12:19:16.281Z,7.35
2018-12-04T12:20:16.154Z,7.38
2018-12-04T12:21:16.208Z,7.36
2018-12-04T12:22:16.244Z,7.4
2018-12-04T12:23:16.433Z,7.42
2018-12-04T12:24:16.413Z,7.34
2018-12-04T12:25:16.171Z,7.35
2018-12-04T12:26:16.292Z,7.33
2018-12-04T12:27:16.164Z,7.36
2018-12-04T12:28:16.922Z,7.4
2018-12-04T12:29:16.503Z,7.35
2018-12-04T12:30:16.662Z,7.43
2018-12-04T12:31:16.260Z,7.46
2018-12-04T12:32:16.295Z,7.43
2018-12-04T12:33:16.309Z,7.46
2018-12-04T12:34:16.357Z,7.5
2018-12-04T12:35:16.193Z,7.48
2018-12-04T12:36:16.265Z,7.41
2018-12-04T12:37:17.016Z,7.45
2018-12-04T12:38:16.286Z,7.44
2018-12-04T12:39:16.188Z,7.32
2018-12-04T12:40:16.261Z,7.31
2018-12-04T12:41:16.290Z,7.33
2018-12-04T12:42:16.199Z,7.34
2018-12-04T12:43:16.349Z,7.38
2018-12-04T12:44:16.178Z,7.4
2018-12-04T12:45:16.271Z,7.36
2018-12-04T12:46:16.254Z,7.32
2018-12-04T12:47:16.277Z,7.36
2018-12-04T12:48:16.307Z,7.35
2018-12-04T12:49:16.110Z,7.35
2018-12-04T12:50:16.943Z,7.38
2018-12-04T12:51:16.191Z,7.38
2018-12-04T12:52:16.132Z,7.34
2018-12-04T12:53:16.267Z,7.36
2018-12-04T12:54:16.259Z,7.39
2018-12-04T12:55:16.150Z,7.42
2018-12-04T12:56:16.193Z,7.47
2018-12-04T12:57:16.157Z,7.45
2018-12-04T12:58:16.155Z,7.41
2018-12-04T12:59:16.118Z,7.39
2018-12-04T13:00:16.104Z,7.42
2018-12-04T13:01:16.078Z,7.37
2018-12-04T13:02:16.287Z,7.39
2018-12-04T13:03:16.272Z,7.46
2018-12-04T13:04:16.114Z,7.49
2018-12-04T13:05:16.258Z,7.53
2018-12-04T13:06:16.159Z,7.52
2018-12-04T13:07:16.191Z,7.55
2018-12-04T13:08:16.226Z,7.59
2018-12-04T13:09:16.123Z,7.63
2018-12-04T13:10:16.225Z,7.62
2018-12-04T13:11:16.131Z,7.64
2018-12-04T13:12:16.151Z,7.66
2018-12-04T13:13:16.129Z,7.63
2018-12-04T13:14:16.168Z,7.66
2018-12-04T13:15:16.177Z,7.6
2018-12-04T13:16:16.132Z,7.63
2018-12-04T13:17:16.144Z,7.65
2018-12-04T13:18:16.160Z,7.69
2018-12-04T13:19:16.057Z,7.66
2018-12-04T13:20:16.194Z,7.65
2018-12-04T13:21:16.122Z,7.67
2018-12-04T13:22:17.173Z,7.69